Time;durP1;ratioP1;P1;durP2;ratioP2;P2;SDS_P1;SDS_P2;PMS_P1;PMS_P2;Temp;Humidity;BMP_temperature;BMP_pressure;BME280_temperature;BME280_humidity;BME280_pressure;Samples;Min_cycle;Max_cycle;Signal;HPM_P1;HPM_P2
2024/03/11 00:02:27;;;;;;;;;;;;;;;4.26;100.00;100022.94;5054571;28;823;-46
2024/03/11 00:04:57;;;;;;;;;;;;;;;4.09;100.00;100018.63;5054044;28;887;-46
2024/03/11 00:07:30;;;;;;;;;;;;;;;4.12;100.00;100017.16;5053951;28;1245;-47
2024/03/11 00:09:56;;;;;;;;;;;;;;;4.13;100.00;100013.25;5053852;28;1914;-46
2024/03/11 00:12:23;;;;;;;;;;;;;;;4.09;100.00;100010.44;5054297;28;926;-46
2024/03/11 00:14:51;;;;;;;;;;;;;;;4.20;100.00;100016.16;5052767;28;1465;-47
2024/03/11 00:17:20;;;;;;;;;;;;;;;4.19;100.00;100008.31;5053782;28;1022;-47
2024/03/11 00:19:46;;;;;;;;;;;;;;;4.08;100.00;100005.31;5054080;28;950;-46
2024/03/11 00:22:13;;;;;;;;;;;;;;;3.96;100.00;99998.00;5053794;28;875;-47
2024/03/11 00:24:39;;;;;;;;;;;;;;;3.83;100.00;100007.44;5053918;28;836;-47
2024/03/11 00:27:09;;;;;;;;;;;;;;;3.74;100.00;100004.09;5053738;28;848;-47
2024/03/11 00:29:37;;;;;;;;;;;;;;;3.77;100.00;99998.69;5053565;28;1980;-47
2024/03/11 00:32:05;;;;;;;;;;;;;;;3.81;100.00;99993.31;5053751;28;824;-47
2024/03/11 00:34:32;;;;;;;;;;;;;;;3.86;100.00;99985.66;5053662;28;927;-49
2024/03/11 00:36:59;;;;;;;;;;;;;;;3.93;100.00;99987.78;5053754;28;832;-48
2024/03/11 00:39:26;;;;;;;;;;;;;;;3.84;100.00;99982.47;5053776;28;954;-50
2024/03/11 00:41:53;;;;;;;;;;;;;;;3.79;100.00;99979.19;5053832;28;910;-50
2024/03/11 00:44:22;;;;;;;;;;;;;;;3.72;100.00;99984.50;5053420;28;836;-51
2024/03/11 00:46:49;;;;;;;;;;;;;;;3.75;100.00;99984.56;5053459;28;950;-47
2024/03/11 00:49:16;;;;;;;;;;;;;;;3.96;100.00;99970.66;5053198;28;1889;-47
2024/03/11 00:51:42;;;;;;;;;;;;;;;4.02;100.00;99971.97;5035351;28;1193;-49
2024/03/11 00:54:09;;;;;;;;;;;;;;;4.04;100.00;99980.63;5053208;28;840;-48
2024/03/11 00:56:36;;;;;;;;;;;;;;;4.04;100.00;99979.81;5053213;28;824;-48
2024/03/11 00:59:04;;;;;;;;;;;;;;;4.01;100.00;99989.53;5053204;28;808;-48
2024/03/11 01:01:31;;;;;;;;;;;;;;;3.97;100.00;99983.19;5052960;28;963;-47
2024/03/11 01:03:58;;;;;;;;;;;;;;;3.99;100.00;99977.34;5035049;28;1603;-47
2024/03/11 01:06:28;;;;;;;;;;;;;;;4.05;100.00;99984.13;5052892;28;946;-47
2024/03/11 01:08:57;;;;;;;;;;;;;;;4.07;100.00;99990.06;5052860;28;1950;-47
2024/03/11 01:11:23;;;;;;;;;;;;;;;4.12;100.00;99983.50;5052982;28;918;-47
2024/03/11 01:13:50;;;;;;;;;;;;;;;3.99;100.00;99975.41;5052569;28;1374;-48
2024/03/11 01:16:16;;;;;;;;;;;;;;;3.96;100.00;99973.38;5052808;28;852;-46
2024/03/11 01:18:45;;;;;;;;;;;;;;;4.07;100.00;99974.41;5052800;28;936;-47
2024/03/11 01:21:13;;;;;;;;;;;;;;;4.00;100.00;99974.25;5052916;28;938;-47
2024/03/11 01:23:40;;;;;;;;;;;;;;;3.85;100.00;99970.38;5052922;28;891;-46
2024/03/11 01:26:06;;;;;;;;;;;;;;;3.86;100.00;99965.69;5052710;28;824;-46
2024/03/11 01:28:33;;;;;;;;;;;;;;;3.82;100.00;99962.09;5052603;28;1950;-47
2024/03/11 01:31:00;;;;;;;;;;;;;;;3.71;100.00;99961.03;5052532;28;892;-47
2024/03/11 01:33:27;;;;;;;;;;;;;;;3.61;100.00;99963.16;5052522;28;937;-47
2024/03/11 01:35:54;;;;;;;;;;;;;;;3.76;100.00;99953.38;5052307;28;888;-46
2024/03/11 01:38:21;;;;;;;;;;;;;;;3.89;100.00;99952.13;5052267;28;864;-48
2024/03/11 01:40:47;;;;;;;;;;;;;;;4.01;100.00;99964.94;5052405;28;823;-47
2024/03/11 01:43:17;;;;;;;;;;;;;;;4.06;100.00;99956.44;5052207;28;915;-47
2024/03/11 01:45:46;;;;;;;;;;;;;;;4.06;100.00;99945.50;5052299;28;867;-47
2024/03/11 01:48:13;;;;;;;;;;;;;;;4.05;100.00;99956.78;5051955;28;1886;-46
2024/03/11 01:50:40;;;;;;;;;;;;;;;4.03;100.00;99961.81;5052147;28;864;-46
2024/03/11 01:53:07;;;;;;;;;;;;;;;3.94;100.00;99964.72;5052110;28;871;-46
2024/03/11 01:55:34;;;;;;;;;;;;;;;3.91;100.00;99953.72;5034268;28;868;-48
2024/03/11 01:58:03;;;;;;;;;;;;;;;3.86;100.00;99961.03;5052202;28;847;-48
2024/03/11 02:00:29;;;;;;;;;;;;;;;3.71;100.00;99964.56;5051920;28;888;-48
2024/03/11 02:02:56;;;;;;;;;;;;;;;3.58;100.00;99961.09;5052109;28;966;-46
2024/03/11 02:05:26;;;;;;;;;;;;;;;3.38;100.00;99960.19;5051951;28;852;-49
2024/03/11 02:08:00;;;;;;;;;;;;;;;3.34;100.00;99964.00;5051960;28;832;-47
2024/03/11 02:10:27;;;;;;;;;;;;;;;3.32;100.00;99963.53;5051840;28;1886;-47
2024/03/11 02:12:53;;;;;;;;;;;;;;;3.40;100.00;99954.41;5051529;28;1203;-49
2024/03/11 02:15:20;;;;;;;;;;;;;;;3.43;100.00;99959.16;5052168;28;843;-47
2024/03/11 02:17:47;;;;;;;;;;;;;;;3.41;100.00;99948.56;5052031;28;824;-48
2024/03/11 02:20:17;;;;;;;;;;;;;;;3.54;100.00;99951.22;5051747;28;927;-50
2024/03/11 02:22:48;;;;;;;;;;;;;;;3.60;100.00;99944.34;5051803;28;828;-47
2024/03/11 02:25:15;;;;;;;;;;;;;;;3.68;100.00;99946.13;5051761;28;812;-47
2024/03/11 02:27:44;;;;;;;;;;;;;;;3.81;100.00;99949.56;5051703;28;930;-47
2024/03/11 02:30:11;;;;;;;;;;;;;;;3.80;100.00;99948.78;5051404;28;1910;-46
2024/03/11 02:32:41;;;;;;;;;;;;;;;3.78;100.00;99948.34;5051526;28;852;-48
2024/03/11 02:35:10;;;;;;;;;;;;;;;3.82;100.00;99941.03;5051643;28;836;-47
2024/03/11 02:37:36;;;;;;;;;;;;;;;3.83;100.00;99939.06;5051387;28;978;-47
2024/03/11 02:40:05;;;;;;;;;;;;;;;3.89;100.00;99945.88;5037905;28;903;-48
2024/03/11 02:42:31;;;;;;;;;;;;;;;3.88;100.00;99941.53;5055533;28;925;-49
2024/03/11 02:44:58;;;;;;;;;;;;;;;3.87;100.00;99940.75;5055531;28;938;-46
2024/03/11 02:47:26;;;;;;;;;;;;;;;3.84;100.00;99944.19;5055621;28;859;-47
2024/03/11 02:49:54;;;;;;;;;;;;;;;3.83;100.00;99934.41;5055416;28;1890;-47
2024/03/11 02:52:22;;;;;;;;;;;;;;;3.81;100.00;99944.88;5055458;28;891;-47
2024/03/11 02:54:50;;;;;;;;;;;;;;;3.85;100.00;99928.59;5055664;28;906;-47
2024/03/11 02:57:22;;;;;;;;;;;;;;;3.92;100.00;99933.41;5055323;28;876;-47
2024/03/11 02:59:49;;;;;;;;;;;;;;;3.92;100.00;99933.41;5055291;28;896;-48
2024/03/11 03:02:18;;;;;;;;;;;;;;;3.87;100.00;99932.53;5055302;28;939;-47
2024/03/11 03:04:45;;;;;;;;;;;;;;;3.87;100.00;99937.22;5055279;28;1160;-47
2024/03/11 03:07:12;;;;;;;;;;;;;;;3.92;100.00;99945.16;5055204;28;946;-47
2024/03/11 03:09:39;;;;;;;;;;;;;;;3.89;100.00;99932.19;5054991;28;1886;-46
2024/03/11 03:12:12;;;;;;;;;;;;;;;3.83;100.00;99944.53;5055442;28;950;-47
2024/03/11 03:14:40;;;;;;;;;;;;;;;3.71;100.00;99945.41;5054719;28;1225;-46
2024/03/11 03:17:07;;;;;;;;;;;;;;;3.63;100.00;99949.13;5055006;28;958;-46
2024/03/11 03:19:37;;;;;;;;;;;;;;;3.64;100.00;99943.31;5020711;28;903;-47
2024/03/11 03:22:03;;;;;;;;;;;;;;;3.58;100.00;99941.19;5054813;28;904;-46
2024/03/11 03:24:30;;;;;;;;;;;;;;;3.50;100.00;99948.41;5054850;28;916;-46
2024/03/11 03:26:58;;;;;;;;;;;;;;;3.39;100.00;99948.16;5054761;28;983;-47
2024/03/11 03:29:26;;;;;;;;;;;;;;;3.43;100.00;99948.22;5054675;28;1972;-48
2024/03/11 03:31:52;;;;;;;;;;;;;;;3.47;100.00;99940.91;5054614;28;1041;-47
2024/03/11 03:34:19;;;;;;;;;;;;;;;3.44;100.00;99934.22;5054775;28;941;-47
2024/03/11 03:36:45;;;;;;;;;;;;;;;3.43;100.00;99932.63;5054605;28;891;-46
2024/03/11 03:39:12;;;;;;;;;;;;;;;3.44;100.00;99938.91;5054757;28;852;-50
2024/03/11 03:41:39;;;;;;;;;;;;;;;3.43;100.00;99934.56;5054586;28;816;-47
2024/03/11 03:44:08;;;;;;;;;;;;;;;3.41;100.00;99926.69;5054533;28;847;-47
2024/03/11 03:46:35;;;;;;;;;;;;;;;3.42;100.00;99922.84;5054608;28;824;-47
2024/03/11 03:49:01;;;;;;;;;;;;;;;3.42;100.00;99925.56;5054176;28;1885;-48
2024/03/11 03:51:28;;;;;;;;;;;;;;;3.42;100.00;99922.84;5036495;28;1204;-47
2024/03/11 03:53:56;;;;;;;;;;;;;;;3.40;100.00;99916.16;5054320;28;848;-48
2024/03/11 03:56:25;;;;;;;;;;;;;;;3.37;100.00;99908.63;5036877;28;871;-47
2024/03/11 03:58:52;;;;;;;;;;;;;;;3.32;100.00;99906.97;5054338;28;931;-47
2024/03/11 04:01:19;;;;;;;;;;;;;;;3.25;100.00;99899.38;5054301;28;825;-48
2024/03/11 04:03:45;;;;;;;;;;;;;;;3.22;100.00;99899.28;5036331;28;879;-47
2024/03/11 04:09:15;;;;;;;;;;;;;;;3.05;100.00;99916.78;5054049;28;1890;-47
2024/03/11 04:11:41;;;;;;;;;;;;;;;3.10;100.00;99924.72;5054173;28;1026;-47
2024/03/11 04:14:08;;;;;;;;;;;;;;;3.11;100.00;99939.16;5053637;28;1423;-47
2024/03/11 04:16:35;;;;;;;;;;;;;;;3.05;100.00;99935.88;5053952;28;828;-47
2024/03/11 04:19:02;;;;;;;;;;;;;;;3.02;100.00;99929.19;5053847;28;930;-48
2024/03/11 04:21:32;;;;;;;;;;;;;;;2.97;100.00;99932.19;5035901;28;932;-47
2024/03/11 04:23:59;;;;;;;;;;;;;;;2.91;100.00;99925.38;5053792;28;907;-47
2024/03/11 04:26:25;;;;;;;;;;;;;;;2.88;100.00;99937.00;5053751;28;804;-47
2024/03/11 04:28:54;;;;;;;;;;;;;;;2.93;100.00;99934.03;5053577;28;1968;-47
2024/03/11 04:31:22;;;;;;;;;;;;;;;3.02;100.00;99939.31;5053721;28;871;-47
2024/03/11 04:33:50;;;;;;;;;;;;;;;3.09;100.00;99953.16;5053542;28;890;-46
2024/03/11 04:36:17;;;;;;;;;;;;;;;3.14;100.00;99955.66;5053856;28;922;-48
2024/03/11 04:38:44;;;;;;;;;;;;;;;3.20;100.00;99961.66;5053398;28;880;-47
2024/03/11 04:41:10;;;;;;;;;;;;;;;3.22;100.00;99964.84;5053375;28;869;-46
2024/03/11 04:43:37;;;;;;;;;;;;;;;3.24;100.00;99963.38;5053278;28;1009;-47
2024/03/11 04:46:03;;;;;;;;;;;;;;;3.25;100.00;99964.16;5053321;28;863;-47
2024/03/11 04:48:30;;;;;;;;;;;;;;;3.23;100.00;99961.75;5053142;28;1945;-47
2024/03/11 04:50:58;;;;;;;;;;;;;;;3.16;100.00;99956.13;5053358;28;899;-46
2024/03/11 04:53:25;;;;;;;;;;;;;;;3.22;100.00;99967.56;5053195;28;907;-46
2024/03/11 04:55:54;;;;;;;;;;;;;;;3.31;100.00;99978.34;5053275;28;815;-46
2024/03/11 04:58:21;;;;;;;;;;;;;;;3.37;100.00;99975.03;5053188;28;907;-46
2024/03/11 05:00:47;;;;;;;;;;;;;;;3.42;100.00;99979.44;5052475;28;926;-47
2024/03/11 05:03:13;;;;;;;;;;;;;;;3.45;100.00;99993.19;5053368;28;824;-47
2024/03/11 05:05:40;;;;;;;;;;;;;;;3.47;100.00;99987.38;5052864;28;927;-47
2024/03/11 05:08:07;;;;;;;;;;;;;;;3.50;100.00;99983.13;5052982;28;895;-47
2024/03/11 05:10:34;;;;;;;;;;;;;;;3.53;100.00;99985.97;5052631;28;1948;-47
2024/03/11 05:13:00;;;;;;;;;;;;;;;3.61;100.00;99989.69;5052987;28;1207;-47
2024/03/11 05:15:26;;;;;;;;;;;;;;;3.68;100.00;99987.13;5053049;28;809;-48
2024/03/11 05:17:54;;;;;;;;;;;;;;;3.77;100.00;99986.97;5052651;28;927;-47
2024/03/11 05:20:21;;;;;;;;;;;;;;;3.85;100.00;99977.78;5034786;28;867;-47
2024/03/11 05:22:48;;;;;;;;;;;;;;;3.89;100.00;99978.69;5052651;28;829;-48
2024/03/11 05:25:15;;;;;;;;;;;;;;;3.96;100.00;99975.31;5052573;28;963;-47
2024/03/11 05:27:47;;;;;;;;;;;;;;;4.05;100.00;99981.41;5052471;28;844;-48
2024/03/11 05:30:14;;;;;;;;;;;;;;;4.17;100.00;99986.00;5052508;28;1913;-48
2024/03/11 05:32:41;;;;;;;;;;;;;;;4.34;100.00;99993.81;5052393;28;856;-47
2024/03/11 05:35:07;;;;;;;;;;;;;;;4.40;100.00;99997.09;5052489;28;875;-47
2024/03/11 05:37:34;;;;;;;;;;;;;;;4.30;100.00;99991.00;5052266;28;920;-48
2024/03/11 05:40:03;;;;;;;;;;;;;;;4.28;100.00;99993.28;5052387;28;828;-48
2024/03/11 05:42:29;;;;;;;;;;;;;;;4.28;100.00;100001.50;5052292;28;1268;-48
2024/03/11 05:44:56;;;;;;;;;;;;;;;4.22;100.00;99991.97;5052284;28;857;-47
2024/03/11 05:47:26;;;;;;;;;;;;;;;4.29;100.00;99996.84;5052177;28;808;-47
2024/03/11 05:49:53;;;;;;;;;;;;;;;4.37;100.00;100000.53;5052280;28;1890;-50
2024/03/11 05:52:26;;;;;;;;;;;;;;;4.44;100.00;100003.44;5052108;28;896;-49
2024/03/11 05:54:53;;;;;;;;;;;;;;;4.53;100.00;100000.50;5051988;28;852;-49
2024/03/11 05:57:25;;;;;;;;;;;;;;;4.69;100.00;99995.75;5051988;28;876;-47
2024/03/11 05:59:52;;;;;;;;;;;;;;;5.40;100.00;100003.84;5051898;28;1076;-48
2024/03/11 06:02:19;;;;;;;;;;;;;;;5.98;100.00;100001.03;5052045;28;926;-48
2024/03/11 06:04:46;;;;;;;;;;;;;;;6.34;100.00;100002.41;5051911;28;856;-47
2024/03/11 06:07:16;;;;;;;;;;;;;;;6.73;100.00;100001.38;5051803;28;1010;-48
2024/03/11 06:09:43;;;;;;;;;;;;;;;6.88;100.00;99999.63;5052056;28;1949;-48
2024/03/11 06:12:10;;;;;;;;;;;;;;;7.03;100.00;100003.34;5051453;28;916;-47
2024/03/11 06:14:37;;;;;;;;;;;;;;;7.11;100.00;100003.06;5051041;28;1226;-47
2024/03/11 06:17:06;;;;;;;;;;;;;;;7.24;100.00;100003.59;5033838;28;1433;-48
2024/03/11 06:19:33;;;;;;;;;;;;;;;7.41;100.00;100015.19;5051692;28;887;-47
2024/03/11 06:22:00;;;;;;;;;;;;;;;7.54;100.00;100000.78;5051618;28;934;-48
2024/03/11 06:24:28;;;;;;;;;;;;;;;7.80;100.00;100001.81;5052004;28;859;-47
2024/03/11 06:26:56;;;;;;;;;;;;;;;8.14;100.00;100008.03;5051428;28;887;-47
2024/03/11 06:29:26;;;;;;;;;;;;;;;8.41;100.00;100005.13;5051619;28;1906;-47
2024/03/11 06:31:56;;;;;;;;;;;;;;;8.30;100.00;100020.72;5051824;28;927;-49
2024/03/11 06:34:23;;;;;;;;;;;;;;;8.17;100.00;100015.53;5051463;28;923;-48
2024/03/11 06:36:50;;;;;;;;;;;;;;;8.24;100.00;100022.28;5051482;28;884;-48
2024/03/11 06:39:18;;;;;;;;;;;;;;;8.42;100.00;100031.47;5051502;28;888;-48
2024/03/11 06:41:44;;;;;;;;;;;;;;;8.74;100.00;100017.91;5033931;28;1014;-48
2024/03/11 06:44:11;;;;;;;;;;;;;;;8.92;100.00;100020.00;5051432;28;998;-48
2024/03/11 06:46:38;;;;;;;;;;;;;;;9.13;100.00;100022.03;5051437;28;946;-48
2024/03/11 06:49:05;;;;;;;;;;;;;;;9.15;100.00;100014.19;5051250;28;1943;-48
2024/03/11 06:51:31;;;;;;;;;;;;;;;9.04;100.00;100022.41;5051389;28;919;-50
2024/03/11 06:54:01;;;;;;;;;;;;;;;8.97;100.00;100027.91;5051418;28;939;-48
2024/03/11 06:56:27;;;;;;;;;;;;;;;9.19;100.00;100018.53;5051545;28;777;-48
2024/03/11 06:58:54;;;;;;;;;;;;;;;9.58;100.00;100020.66;5051369;28;827;-48
2024/03/11 07:01:21;;;;;;;;;;;;;;;10.55;100.00;100025.47;5051193;28;912;-48
2024/03/11 07:03:48;;;;;;;;;;;;;;;11.51;100.00;100032.69;5051627;28;827;-48
2024/03/11 07:06:17;;;;;;;;;;;;;;;12.28;100.00;100037.34;5051322;28;879;-48
2024/03/11 07:08:43;;;;;;;;;;;;;;;13.00;100.00;100033.91;5051114;28;1947;-51
2024/03/11 07:11:13;;;;;;;;;;;;;;;13.14;100.00;100030.16;5051071;28;1096;-48
2024/03/11 07:13:41;;;;;;;;;;;;;;;13.05;100.00;100030.66;5029844;28;1279;-49
2024/03/11 07:16:09;;;;;;;;;;;;;;;12.93;100.00;100039.50;5031177;28;905;-49
2024/03/11 07:18:36;;;;;;;;;;;;;;;12.71;100.00;100036.94;5031287;28;950;-49
2024/03/11 07:21:06;;;;;;;;;;;;;;;12.28;100.00;100042.09;5031476;28;888;-49
2024/03/11 07:23:33;;;;;;;;;;;;;;;12.26;100.00;100042.50;5031315;28;957;-49
2024/03/11 07:26:00;;;;;;;;;;;;;;;12.54;100.00;100047.00;5034465;28;993;-49
2024/03/11 07:28:27;;;;;;;;;;;;;;;12.69;100.00;100044.91;5034852;28;1910;-50
2024/03/11 07:30:55;;;;;;;;;;;;;;;12.58;100.00;100045.00;5034839;28;869;-49
2024/03/11 07:33:22;;;;;;;;;;;;;;;12.23;100.00;100041.34;5034855;28;856;-52
2024/03/11 07:35:50;;;;;;;;;;;;;;;12.31;100.00;100035.72;5034680;28;961;-52
2024/03/11 07:38:17;;;;;;;;;;;;;;;12.30;100.00;100034.16;5034588;28;966;-50
2024/03/11 07:40:45;;;;;;;;;;;;;;;12.30;100.00;100028.63;5034597;28;1113;-50
2024/03/11 07:43:11;;;;;;;;;;;;;;;12.14;100.00;100023.59;5034562;28;832;-49
2024/03/11 07:45:39;;;;;;;;;;;;;;;11.97;100.00;100020.56;5034699;28;863;-51
2024/03/11 07:48:06;;;;;;;;;;;;;;;12.07;100.00;100021.66;5034541;28;942;-48
2024/03/11 07:50:33;;;;;;;;;;;;;;;12.32;100.00;100024.25;5034404;28;1963;-51
2024/03/11 07:52:59;;;;;;;;;;;;;;;12.42;100.00;100026.16;5034307;28;954;-50
2024/03/11 07:55:28;;;;;;;;;;;;;;;12.56;100.00;100027.97;5034413;28;985;-49
2024/03/11 07:57:55;;;;;;;;;;;;;;;12.87;100.00;100026.09;5034220;28;969;-49
2024/03/11 08:00:29;;;;;;;;;;;;;;;12.93;100.00;100009.78;5034282;28;875;-50
2024/03/11 08:02:59;;;;;;;;;;;;;;;12.31;100.00;100017.13;5034318;28;871;-48
2024/03/11 08:05:27;;;;;;;;;;;;;;;12.45;100.00;100025.31;5034091;28;871;-50
2024/03/11 08:07:54;;;;;;;;;;;;;;;12.59;100.00;100018.84;5034460;28;957;-49
2024/03/11 08:10:21;;;;;;;;;;;;;;;12.65;100.00;100019.19;5032717;28;1960;-49
2024/03/11 08:12:48;;;;;;;;;;;;;;;13.00;100.00;100028.34;5034494;28;907;-49
2024/03/11 08:15:15;;;;;;;;;;;;;;;13.28;100.00;100027.22;5053818;28;903;-48
2024/03/11 08:17:42;;;;;;;;;;;;;;;13.39;100.00;100019.56;5054003;28;833;-49
2024/03/11 08:20:10;;;;;;;;;;;;;;;13.47;100.00;100020.25;5053960;28;845;-49
2024/03/11 08:22:37;;;;;;;;;;;;;;;13.35;100.00;100012.50;5053833;28;1117;-48
2024/03/11 08:25:08;;;;;;;;;;;;;;;13.57;100.00;100013.78;5053983;28;812;-49
2024/03/11 08:27:36;;;;;;;;;;;;;;;14.25;100.00;100017.50;5053673;28;872;-50
2024/03/11 08:30:04;;;;;;;;;;;;;;;14.32;100.00;100027.72;5053456;28;1910;-49
2024/03/11 08:32:31;;;;;;;;;;;;;;;14.38;100.00;100024.06;5035710;28;2004;-53
2024/03/11 08:34:58;;;;;;;;;;;;;;;14.64;100.00;100018.88;5053578;28;1037;-51
2024/03/11 08:37:25;;;;;;;;;;;;;;;14.42;100.00;100016.44;5052513;28;899;-50
2024/03/11 08:39:51;;;;;;;;;;;;;;;14.09;100.00;100013.41;5053863;28;871;-49
2024/03/11 08:42:19;;;;;;;;;;;;;;;13.90;100.00;100008.53;5053443;28;918;-49
2024/03/11 08:44:47;;;;;;;;;;;;;;;14.35;100.00;100019.34;5053498;28;863;-50
2024/03/11 08:47:13;;;;;;;;;;;;;;;14.76;100.00;100020.25;5053352;28;899;-50
2024/03/11 08:49:40;;;;;;;;;;;;;;;15.35;100.00;100010.34;5053503;28;1964;-49
2024/03/11 08:52:07;;;;;;;;;;;;;;;16.16;95.04;100023.66;5053190;28;943;-50
2024/03/11 08:54:35;;;;;;;;;;;;;;;16.12;92.27;100026.53;5053600;28;828;-50
2024/03/11 08:57:05;;;;;;;;;;;;;;;15.80;93.35;100021.69;5053057;28;1110;-50
2024/03/11 08:59:32;;;;;;;;;;;;;;;15.70;94.88;100019.91;5053114;28;873;-50
2024/03/11 09:01:59;;;;;;;;;;;;;;;16.05;93.43;100017.56;5053309;28;835;-49
2024/03/11 09:04:26;;;;;;;;;;;;;;;16.83;92.28;100022.38;5052982;28;840;-49
2024/03/11 09:06:51;;;;;;;;;;;;;;;17.60;85.52;100017.75;5053055;28;888;-53
2024/03/11 09:09:24;;;;;;;;;;;;;;;17.54;84.75;100017.56;5052760;28;1958;-53
2024/03/11 09:11:57;;;;;;;;;;;;;;;17.38;83.59;100009.25;5053053;28;983;-50
2024/03/11 09:14:33;;;;;;;;;;;;;;;17.28;82.69;100018.72;5052387;28;1324;-51
2024/03/11 09:17:00;;;;;;;;;;;;;;;17.25;86.39;100011.25;5052776;28;884;-53
2024/03/11 09:19:30;;;;;;;;;;;;;;;18.14;83.48;99991.75;5052781;28;828;-52
2024/03/11 09:21:57;;;;;;;;;;;;;;;18.34;81.65;99990.69;5052731;28;1352;-53
2024/03/11 09:24:25;;;;;;;;;;;;;;;17.46;79.53;99998.66;5035066;28;1598;-52
2024/03/11 09:26:54;;;;;;;;;;;;;;;16.49;85.24;99998.50;5052833;28;919;-50
2024/03/11 09:29:27;;;;;;;;;;;;;;;16.00;90.67;99996.56;5052486;28;1981;-51
2024/03/11 09:31:53;;;;;;;;;;;;;;;16.00;92.98;99999.34;5052415;28;906;-50
2024/03/11 09:34:20;;;;;;;;;;;;;;;15.63;95.43;99989.44;5052531;28;848;-50
2024/03/11 09:36:46;;;;;;;;;;;;;;;15.82;97.12;99999.75;5052468;28;879;-50
2024/03/11 09:39:18;;;;;;;;;;;;;;;15.81;97.17;99991.81;5052450;28;951;-50
2024/03/11 09:41:48;;;;;;;;;;;;;;;15.49;99.21;99993.31;5052234;28;927;-50
2024/03/11 10:12:58;;;;;;;;;;;;;;;15.31;100.00;99974.97;5831006;22;1514;-62
2024/03/11 10:15:32;;;;;;;;;;;;;;;15.17;100.00;99977.28;5032070;28;839;-63
2024/03/11 10:18:25;;;;;;;;;;;;;;;15.15;100.00;99974.16;5014050;28;812;-63
2024/03/11 10:20:58;;;;;;;;;;;;;;;15.09;100.00;99959.97;5031738;28;875;-62
2024/03/11 10:23:25;;;;;;;;;;;;;;;15.15;100.00;99963.81;5014173;28;1256;-62
2024/03/11 10:26:18;;;;;;;;;;;;;;;15.21;100.00;99970.44;5014030;28;947;-62
2024/03/11 10:28:49;;;;;;;;;;;;;;;15.53;100.00;99974.50;5031620;28;1918;-62
2024/03/11 10:31:24;;;;;;;;;;;;;;;15.43;100.00;99972.78;5013939;28;1498;-62
2024/03/11 10:33:53;;;;;;;;;;;;;;;15.49;100.00;99966.25;5031566;28;851;-62
2024/03/11 10:36:25;;;;;;;;;;;;;;;15.57;100.00;99964.06;5032046;28;791;-62
2024/03/11 10:38:57;;;;;;;;;;;;;;;15.71;100.00;99960.19;5031985;28;906;-62
2024/03/11 10:41:25;;;;;;;;;;;;;;;15.79;100.00;99967.19;5013832;28;1195;-63
2024/03/11 10:43:52;;;;;;;;;;;;;;;15.92;99.47;99964.50;5031520;28;881;-63
2024/03/11 10:46:22;;;;;;;;;;;;;;;16.10;98.55;99964.06;5031448;28;834;-63
2024/03/11 10:48:51;;;;;;;;;;;;;;;16.45;96.76;99950.41;5031468;28;1890;-61
2024/03/11 10:51:21;;;;;;;;;;;;;;;17.22;93.84;99951.47;5031388;28;863;-62
2024/03/11 10:53:53;;;;;;;;;;;;;;;17.84;86.99;99944.81;5031480;28;820;-62
2024/03/11 10:56:23;;;;;;;;;;;;;;;18.27;83.79;99944.16;5031483;28;1341;-61
2024/03/11 10:58:56;;;;;;;;;;;;;;;18.31;81.56;99949.63;5031332;28;875;-61
2024/03/11 11:01:33;;;;;;;;;;;;;;;18.36;79.90;99949.03;5035391;28;897;-61
2024/03/11 11:04:13;;;;;;;;;;;;;;;18.50;79.78;99948.56;5035327;28;868;-61
2024/03/11 11:06:47;;;;;;;;;;;;;;;18.88;78.11;99942.03;5017675;28;1161;-61
2024/03/11 11:09:13;;;;;;;;;;;;;;;18.65;76.88;99948.84;5017329;28;1944;-62
2024/03/11 11:11:51;;;;;;;;;;;;;;;18.22;78.66;99941.94;5035520;28;852;-61
2024/03/11 11:14:18;;;;;;;;;;;;;;;17.93;81.94;99940.09;5034985;28;1238;-61
2024/03/11 11:16:45;;;;;;;;;;;;;;;17.67;83.88;99933.72;5035203;28;868;-60
2024/03/11 11:19:22;;;;;;;;;;;;;;;17.31;86.00;99937.63;5035081;28;893;-61
2024/03/11 11:21:52;;;;;;;;;;;;;;;17.32;85.50;99938.41;5035017;28;1033;-60
2024/03/11 11:24:29;;;;;;;;;;;;;;;16.99;86.88;99938.56;5034948;28;820;-61
2024/03/11 11:27:06;;;;;;;;;;;;;;;16.88;88.33;99940.91;5034942;28;860;-61
2024/03/11 11:29:33;;;;;;;;;;;;;;;16.90;88.82;99930.06;5034765;28;1967;-61
2024/03/11 11:32:04;;;;;;;;;;;;;;;17.06;89.57;99937.59;5034853;28;834;-60
2024/03/11 11:34:46;;;;;;;;;;;;;;;17.06;90.25;99929.22;5034781;28;895;-60
2024/03/11 11:37:22;;;;;;;;;;;;;;;16.99;91.07;99930.19;5034758;28;852;-60
2024/03/11 11:39:51;;;;;;;;;;;;;;;17.05;90.78;99934.00;5034672;28;958;-60
2024/03/11 11:42:37;;;;;;;;;;;;;;;16.99;90.96;99929.41;5034621;28;875;-60
2024/03/11 11:45:11;;;;;;;;;;;;;;;16.74;92.49;99933.66;5034922;28;852;-60
2024/03/11 11:47:38;;;;;;;;;;;;;;;16.63;93.63;99922.03;5016756;28;1382;-60
2024/03/11 11:50:25;;;;;;;;;;;;;;;16.43;98.06;99936.91;5034466;28;1886;-60
2024/03/11 11:53:02;;;;;;;;;;;;;;;16.42;100.00;99923.41;5017072;28;1266;-60
2024/03/11 11:55:34;;;;;;;;;;;;;;;16.29;100.00;99921.31;5034444;28;835;-60
2024/03/11 11:58:10;;;;;;;;;;;;;;;16.32;100.00;99919.66;5034324;28;831;-60
2024/03/11 12:00:43;;;;;;;;;;;;;;;16.44;100.00;99921.72;5034362;28;855;-60
2024/03/11 12:03:30;;;;;;;;;;;;;;;16.60;98.03;99917.31;5034235;28;899;-60
2024/03/11 12:06:19;;;;;;;;;;;;;;;16.64;99.21;99926.38;5034109;28;899;-60
2024/03/11 12:08:47;;;;;;;;;;;;;;;16.62;96.52;99921.25;5034121;28;1946;-60
2024/03/11 12:11:15;;;;;;;;;;;;;;;16.60;94.40;99923.69;5033247;28;781;-60
2024/03/11 12:13:43;;;;;;;;;;;;;;;16.56;97.06;99923.00;5034016;28;1420;-60
2024/03/11 12:16:11;;;;;;;;;;;;;;;16.60;95.43;99923.69;5034171;28;847;-61
2024/03/11 12:18:41;;;;;;;;;;;;;;;16.63;98.57;99913.66;5034039;28;887;-60
2024/03/11 12:21:11;;;;;;;;;;;;;;;16.55;98.54;99913.06;5033910;28;863;-60
2024/03/11 12:23:38;;;;;;;;;;;;;;;16.64;100.00;99909.63;5034204;28;867;-60
2024/03/11 12:26:09;;;;;;;;;;;;;;;16.55;98.51;99915.84;5033833;28;843;-60
2024/03/11 12:28:37;;;;;;;;;;;;;;;16.43;100.00;99906.22;5033730;28;1918;-60
2024/03/11 12:31:05;;;;;;;;;;;;;;;16.31;100.00;99906.94;5033692;28;898;-60
2024/03/11 12:33:34;;;;;;;;;;;;;;;16.10;100.00;99902.72;5033753;28;819;-60
2024/03/11 12:36:04;;;;;;;;;;;;;;;15.92;100.00;99897.59;5033636;28;843;-60
2024/03/11 12:38:32;;;;;;;;;;;;;;;15.73;100.00;99901.28;5033605;28;851;-60
2024/03/11 12:40:58;;;;;;;;;;;;;;;15.49;100.00;99896.63;5033536;28;1161;-60
2024/03/11 12:43:33;;;;;;;;;;;;;;;15.50;100.00;99892.59;5033428;28;878;-60
2024/03/11 12:46:02;;;;;;;;;;;;;;;15.45;100.00;99892.34;5033504;28;820;-60
2024/03/11 12:48:29;;;;;;;;;;;;;;;15.41;100.00;99891.66;5033358;28;840;-60
2024/03/11 12:50:57;;;;;;;;;;;;;;;15.39;100.00;99886.50;5033327;28;1935;-60
2024/03/11 12:53:24;;;;;;;;;;;;;;;15.43;100.00;99894.78;5033245;28;878;-60
2024/03/11 12:56:04;;;;;;;;;;;;;;;15.41;100.00;99898.00;5033394;28;785;-60
2024/03/11 12:58:33;;;;;;;;;;;;;;;15.56;100.00;99887.31;5033578;28;863;-60
2024/03/11 13:01:04;;;;;;;;;;;;;;;15.55;100.00;99890.53;5033133;28;879;-60
2024/03/11 13:03:35;;;;;;;;;;;;;;;15.56;100.00;99889.31;5033194;28;804;-60
2024/03/11 13:06:03;;;;;;;;;;;;;;;15.70;100.00;99886.16;5033118;28;886;-60
2024/03/11 13:08:31;;;;;;;;;;;;;;;15.70;100.00;99875.00;5015266;28;1212;-60
2024/03/11 13:11:03;;;;;;;;;;;;;;;15.84;99.06;99877.47;5032803;28;859;-60
2024/03/11 13:13:32;;;;;;;;;;;;;;;16.06;95.76;99882.50;5032607;28;1377;-60
2024/03/11 13:15:59;;;;;;;;;;;;;;;16.09;94.06;99871.28;5032904;28;883;-60
2024/03/11 13:18:29;;;;;;;;;;;;;;;16.25;93.86;99876.00;5015161;28;1224;-60
2024/03/11 13:21:07;;;;;;;;;;;;;;;16.47;90.38;99873.44;5014961;28;1430;-60
2024/03/11 13:23:34;;;;;;;;;;;;;;;16.60;89.36;99876.28;5014589;28;959;-60
2024/03/11 13:26:02;;;;;;;;;;;;;;;16.76;88.02;99875.41;5032659;28;915;-60
2024/03/11 13:28:28;;;;;;;;;;;;;;;17.30;85.31;99869.03;5032610;28;863;-61
2024/03/11 13:30:59;;;;;;;;;;;;;;;17.94;81.27;99865.38;5032526;28;1906;-61
2024/03/11 13:33:25;;;;;;;;;;;;;;;17.90;77.34;99861.91;5032506;28;915;-60
2024/03/11 13:35:55;;;;;;;;;;;;;;;17.67;78.36;99863.84;5014799;28;1473;-60
2024/03/11 13:38:21;;;;;;;;;;;;;;;17.44;78.90;99867.00;5032336;28;856;-60